createdAt,value
2019-02-28T00:01:47.213Z,8.97
2019-02-28T00:04:32.754Z,8.87
2019-02-28T00:07:01.240Z,8.07
2019-02-28T00:09:50.411Z,9.93
2019-02-28T00:12:20.284Z,9.63
2019-02-28T00:15:09.469Z,9.00
2019-02-28T00:17:51.764Z,9.20
2019-02-28T00:20:33.363Z,8.47
2019-02-28T00:23:14.856Z,8.17
2019-02-28T00:25:57.169Z,8.90
2019-02-28T00:28:38.626Z,8.93
2019-02-28T00:34:23.000Z,9.20
2019-02-28T00:37:00.420Z,7.77
2019-02-28T00:39:31.448Z,9.20
2019-02-28T00:42:33.270Z,8.17
2019-02-28T00:45:14.765Z,8.97
2019-02-28T00:47:56.186Z,8.30
2019-02-28T00:50:38.465Z,9.23
2019-02-28T00:53:19.948Z,9.33
2019-02-28T00:56:02.279Z,8.97
2019-02-28T00:58:43.781Z,7.50
2019-02-28T01:01:25.117Z,9.77
2019-02-28T01:04:07.416Z,8.33
2019-02-28T01:06:49.801Z,8.60
2019-02-28T01:09:32.082Z,10.40
2019-02-28T01:12:18.712Z,9.90
2019-02-28T01:14:57.068Z,9.63
2019-02-28T01:17:39.385Z,11.27
2019-02-28T01:20:20.796Z,8.80
2019-02-28T01:23:03.076Z,8.30
2019-02-28T01:25:45.282Z,7.70
2019-02-28T01:28:27.647Z,9.30
2019-02-28T01:31:11.622Z,10.37
2019-02-28T01:33:53.084Z,10.10
2019-02-28T01:36:35.449Z,8.23
2019-02-28T01:39:15.700Z,7.47
2019-02-28T01:41:57.888Z,10.17
2019-02-28T01:44:39.537Z,7.93
2019-02-28T01:47:09.663Z,9.37
2019-02-28T01:53:01.820Z,9.63
2019-02-28T01:55:44.059Z,9.57
2019-02-28T01:58:25.828Z,10.80
2019-02-28T02:01:07.651Z,11.20
2019-02-28T02:03:49.968Z,9.83
2019-02-28T02:06:30.105Z,8.47
2019-02-28T02:09:19.421Z,7.47
2019-02-28T02:12:20.728Z,10.20
2019-02-28T02:15:02.256Z,9.37
2019-02-28T02:17:43.663Z,10.93
2019-02-28T02:20:26.307Z,10.00
2019-02-28T02:23:09.103Z,11.00
2019-02-28T02:25:50.538Z,9.63
2019-02-28T02:28:31.952Z,8.20
2019-02-28T02:31:14.225Z,9.70
2019-02-28T02:33:55.869Z,8.10
2019-02-28T02:36:38.093Z,8.90
2019-02-28T02:39:20.337Z,9.90
2019-02-28T02:42:10.059Z,9.50
2019-02-28T02:44:46.599Z,11.53
2019-02-28T02:47:31.405Z,8.53
2019-02-28T02:50:11.071Z,9.20
2019-02-28T02:52:53.329Z,9.53
2019-02-28T02:55:35.418Z,10.57
2019-02-28T02:58:17.014Z,9.87
2019-02-28T03:00:59.245Z,10.17
2019-02-28T03:03:44.291Z,7.30
2019-02-28T03:06:24.536Z,10.17
2019-02-28T03:09:10.180Z,9.07
2019-02-28T03:11:50.978Z,5.40
2019-02-28T03:14:32.650Z,6.50
2019-02-28T03:17:14.829Z,6.40
2019-02-28T03:19:56.364Z,9.53
2019-02-28T03:22:38.319Z,11.90
2019-02-28T03:25:19.711Z,13.00
2019-02-28T03:28:01.330Z,11.03
2019-02-28T03:30:43.213Z,10.53
2019-02-28T03:33:28.429Z,12.03
2019-02-28T03:36:08.584Z,11.83
2019-02-28T03:38:50.813Z,12.57
2019-02-28T03:41:32.943Z,9.23
2019-02-28T03:44:20.098Z,13.03
2019-02-28T03:46:58.364Z,12.27
2019-02-28T03:49:39.780Z,12.43
2019-02-28T03:52:21.185Z,14.07
2019-02-28T03:55:04.542Z,14.20
2019-02-28T03:57:45.905Z,12.77
2019-02-28T04:00:32.769Z,11.63
2019-02-28T04:03:11.041Z,14.80
2019-02-28T04:05:52.544Z,11.90
2019-02-28T04:08:33.963Z,12.30
2019-02-28T04:11:15.415Z,14.30
2019-02-28T04:13:57.172Z,15.37
2019-02-28T04:16:38.651Z,16.63
2019-02-28T04:19:22.597Z,14.53
2019-02-28T04:22:02.782Z,16.57
2019-02-28T04:24:46.238Z,14.37
2019-02-28T04:27:28.033Z,17.70
2019-02-28T04:30:09.709Z,14.40
2019-02-28T04:32:52.043Z,15.53
2019-02-28T04:35:33.525Z,17.23
2019-02-28T04:38:20.439Z,16.47
2019-02-28T04:40:59.893Z,17.27
2019-02-28T04:43:41.627Z,15.50
2019-02-28T04:46:23.872Z,15.43
2019-02-28T04:49:05.328Z,15.13
2019-02-28T04:51:37.008Z,13.27
2019-02-28T04:54:45.579Z,13.77
2019-02-28T04:57:27.256Z,14.63
2019-02-28T05:00:09.564Z,16.57
2019-02-28T05:02:54.133Z,13.97
2019-02-28T05:05:33.059Z,12.67
2019-02-28T05:08:22.219Z,13.77
2019-02-28T05:11:03.796Z,13.07
2019-02-28T05:13:48.257Z,12.70
2019-02-28T05:16:29.219Z,13.40
2019-02-28T05:19:11.480Z,13.97
2019-02-28T05:21:53.564Z,15.33
2019-02-28T05:24:42.828Z,15.37
2019-02-28T05:27:45.907Z,13.70
2019-02-28T05:30:28.187Z,11.40
2019-02-28T05:33:10.320Z,10.17
2019-02-28T05:35:52.395Z,9.30
2019-02-28T05:38:33.844Z,8.87
2019-02-28T05:41:16.042Z,7.10
2019-02-28T05:43:57.821Z,6.30
2019-02-28T05:46:39.268Z,8.50
2019-02-28T05:49:21.140Z,12.50
2019-02-28T05:52:03.396Z,7.20
2019-02-28T05:54:47.197Z,12.97
2019-02-28T05:57:28.547Z,9.57
2019-02-28T06:00:09.512Z,12.13
2019-02-28T06:02:50.933Z,9.57
2019-02-28T06:05:33.186Z,11.70
2019-02-28T06:08:14.720Z,12.43
2019-02-28T06:11:00.629Z,14.77
2019-02-28T06:13:39.199Z,11.10
2019-02-28T06:16:21.423Z,11.77
2019-02-28T06:19:04.582Z,13.10
2019-02-28T06:21:46.303Z,16.00
2019-02-28T06:24:28.546Z,14.70
2019-02-28T06:27:10.765Z,14.20
2019-02-28T06:29:52.265Z,11.77
2019-02-28T06:32:33.847Z,12.60
2019-02-28T06:35:18.607Z,12.77
2019-02-28T06:37:59.263Z,14.00
2019-02-28T06:40:40.720Z,12.30
2019-02-28T06:43:22.470Z,9.60
2019-02-28T06:46:04.657Z,16.97
2019-02-28T06:48:46.553Z,15.20
2019-02-28T06:51:28.461Z,15.17
2019-02-28T06:54:09.970Z,17.07
2019-02-28T06:56:54.118Z,17.87
2019-02-28T06:59:36.127Z,21.30
2019-02-28T07:02:18.840Z,18.53
2019-02-28T07:05:00.250Z,18.93
2019-02-28T07:07:45.621Z,15.60
2019-02-28T07:10:25.580Z,15.80
2019-02-28T07:13:07.605Z,18.47
2019-02-28T07:15:49.732Z,20.53
2019-02-28T07:18:30.047Z,19.93
2019-02-28T07:24:02.369Z,17.10
2019-02-28T07:26:44.856Z,21.20
2019-02-28T07:29:27.037Z,19.27
2019-02-28T07:32:00.296Z,18.50
2019-02-28T07:35:07.568Z,16.77
2019-02-28T07:37:53.170Z,16.17
2019-02-28T07:40:33.341Z,18.20
2019-02-28T07:43:15.233Z,21.90
2019-02-28T07:45:55.529Z,23.33
2019-02-28T07:48:44.684Z,22.23
2019-02-28T07:51:26.712Z,21.30
2019-02-28T07:54:08.367Z,21.53
2019-02-28T07:56:50.372Z,23.33
2019-02-28T07:59:32.289Z,19.83
2019-02-28T08:02:12.512Z,21.27
2019-02-28T08:05:03.021Z,21.60
2019-02-28T08:08:04.249Z,20.43
2019-02-28T08:10:47.976Z,22.87
2019-02-28T08:13:29.494Z,18.50
2019-02-28T08:16:10.923Z,17.73
2019-02-28T08:18:52.515Z,15.43
2019-02-28T08:21:34.828Z,18.70
2019-02-28T08:24:16.384Z,21.83
2019-02-28T08:26:57.784Z,23.23
2019-02-28T08:29:44.788Z,20.87
2019-02-28T08:32:23.237Z,20.00
2019-02-28T08:35:05.519Z,17.60
2019-02-28T08:37:47.823Z,19.20
2019-02-28T08:40:30.003Z,18.70
2019-02-28T08:43:10.593Z,20.07
2019-02-28T08:46:02.840Z,20.53
2019-02-28T08:49:06.076Z,19.83
2019-02-28T08:51:53.379Z,16.60
2019-02-28T08:54:34.944Z,16.03
2019-02-28T08:57:17.260Z,20.80
2019-02-28T08:59:59.072Z,17.47
2019-02-28T09:02:41.500Z,19.90
2019-02-28T09:05:26.148Z,19.70
2019-02-28T09:08:07.831Z,17.73
2019-02-28T09:10:49.551Z,19.27
2019-02-28T09:13:31.783Z,17.67
2019-02-28T09:16:14.060Z,17.70
2019-02-28T09:18:54.162Z,17.17
2019-02-28T09:21:43.313Z,19.97
2019-02-28T09:24:25.983Z,17.13
2019-02-28T09:27:08.024Z,15.33
2019-02-28T09:29:54.507Z,18.50
2019-02-28T09:32:31.925Z,17.57
2019-02-28T09:35:21.043Z,14.70
2019-02-28T09:38:06.279Z,14.87
2019-02-28T09:40:46.792Z,14.17
2019-02-28T09:43:28.423Z,14.40
2019-02-28T09:46:12.479Z,15.33
2019-02-28T09:48:54.275Z,14.87
2019-02-28T09:51:35.855Z,16.63
2019-02-28T09:54:17.409Z,19.03
2019-02-28T09:57:01.202Z,14.13
2019-02-28T09:59:43.598Z,16.97
2019-02-28T10:02:28.780Z,14.80
2019-02-28T10:05:11.817Z,17.93
2019-02-28T10:08:01.634Z,15.30
2019-02-28T10:10:38.776Z,15.67
2019-02-28T10:13:20.348Z,16.00
2019-02-28T10:16:01.664Z,16.97
2019-02-28T10:18:43.101Z,17.47
2019-02-28T10:21:25.373Z,19.10
2019-02-28T10:24:07.714Z,18.10
2019-02-28T10:26:51.508Z,17.93
2019-02-28T10:29:34.167Z,16.90
2019-02-28T10:32:19.116Z,17.80
2019-02-28T10:35:01.323Z,19.77
2019-02-28T10:37:44.253Z,20.13
2019-02-28T10:40:27.305Z,20.23
2019-02-28T10:43:15.528Z,21.93
2019-02-28T10:46:07.148Z,21.07
2019-02-28T10:48:41.848Z,19.60
2019-02-28T10:51:13.964Z,17.27
2019-02-28T10:53:40.691Z,18.60
2019-02-28T10:56:10.800Z,19.80
2019-02-28T10:58:40.861Z,17.40
2019-02-28T11:01:12.251Z,19.90
2019-02-28T11:03:42.515Z,18.23
2019-02-28T11:06:12.545Z,17.57
2019-02-28T11:08:44.548Z,20.53
2019-02-28T11:11:14.748Z,20.23
2019-02-28T11:13:45.219Z,19.63
2019-02-28T11:16:15.360Z,22.20
2019-02-28T11:18:45.432Z,23.33
2019-02-28T11:21:15.753Z,24.60
2019-02-28T11:23:46.488Z,23.20
2019-02-28T11:26:17.580Z,23.47
2019-02-28T11:28:47.643Z,24.03
2019-02-28T11:31:19.185Z,24.07
2019-02-28T11:33:49.788Z,25.50
2019-02-28T11:36:19.837Z,24.87
2019-02-28T11:38:52.495Z,26.00
2019-02-28T11:41:21.725Z,24.70
2019-02-28T11:43:52.084Z,28.13
2019-02-28T11:46:22.112Z,24.93
2019-02-28T11:48:54.081Z,27.43
2019-02-28T11:51:23.878Z,30.20
2019-02-28T11:53:53.893Z,31.07
2019-02-28T11:56:25.573Z,29.00
2019-02-28T11:58:55.664Z,29.63
2019-02-28T12:01:25.708Z,31.50
2019-02-28T12:03:55.612Z,25.80
2019-02-28T12:06:26.306Z,26.23
2019-02-28T12:08:56.365Z,25.50
2019-02-28T12:11:26.317Z,23.50
2019-02-28T12:13:56.288Z,21.17
2019-02-28T12:16:26.328Z,25.83
2019-02-28T12:18:56.379Z,18.80
2019-02-28T12:21:26.331Z,23.87
2019-02-28T12:23:57.288Z,25.57
2019-02-28T12:26:28.389Z,23.27
2019-02-28T12:28:58.418Z,22.10
2019-02-28T12:31:28.382Z,21.03
2019-02-28T12:33:58.287Z,22.40
2019-02-28T12:36:28.324Z,21.80
2019-02-28T12:38:59.455Z,22.00
2019-02-28T12:44:12.443Z,20.53
2019-02-28T12:46:53.839Z,18.23
2019-02-28T12:49:35.542Z,21.67
2019-02-28T12:52:17.128Z,21.63
2019-02-28T12:54:58.605Z,18.30
2019-02-28T12:57:40.573Z,17.73
2019-02-28T13:00:23.392Z,16.30
2019-02-28T13:03:05.729Z,22.23
2019-02-28T13:05:49.247Z,17.53
2019-02-28T13:08:30.358Z,17.27
2019-02-28T13:11:12.755Z,16.70
2019-02-28T13:13:54.896Z,17.43
2019-02-28T13:16:36.336Z,18.30
2019-02-28T13:19:20.125Z,17.60
2019-02-28T13:22:02.368Z,16.07
2019-02-28T13:24:46.401Z,20.77
2019-02-28T13:27:27.334Z,17.53
2019-02-28T13:29:57.408Z,17.50
2019-02-28T13:32:27.392Z,18.07
2019-02-28T13:34:57.544Z,16.40
2019-02-28T13:37:27.512Z,17.27
2019-02-28T13:39:57.420Z,17.83
2019-02-28T13:42:27.460Z,14.37
2019-02-28T13:44:57.521Z,15.37
2019-02-28T13:47:28.437Z,13.73
2019-02-28T13:49:58.495Z,12.27
2019-02-28T13:52:28.744Z,11.63
2019-02-28T13:54:59.093Z,11.97
2019-02-28T13:57:29.111Z,10.40
2019-02-28T13:59:59.162Z,9.33
2019-02-28T14:02:33.617Z,9.87
2019-02-28T14:05:03.017Z,10.17
2019-02-28T14:07:33.747Z,10.27
2019-02-28T14:10:05.081Z,9.03
2019-02-28T14:12:34.964Z,8.67
2019-02-28T14:15:05.456Z,8.60
2019-02-28T14:17:36.431Z,8.90
2019-02-28T14:20:08.563Z,9.43
2019-02-28T14:22:38.592Z,8.33
2019-02-28T14:25:09.261Z,9.63
2019-02-28T14:27:39.393Z,8.97
2019-02-28T14:30:11.293Z,8.23
2019-02-28T14:32:42.275Z,10.17
2019-02-28T14:35:15.002Z,9.10
2019-02-28T14:37:45.028Z,8.60
2019-02-28T14:40:17.937Z,8.83
2019-02-28T14:42:46.815Z,7.47
2019-02-28T14:45:17.331Z,8.30
2019-02-28T14:47:56.498Z,7.53
2019-02-28T14:50:20.286Z,6.77
2019-02-28T14:52:51.247Z,6.53
2019-02-28T14:55:21.456Z,7.87
2019-02-28T14:57:51.485Z,7.07
2019-02-28T15:00:25.517Z,7.73
2019-02-28T15:02:55.464Z,6.70
2019-02-28T15:05:26.035Z,6.23
2019-02-28T15:07:56.532Z,6.67
2019-02-28T15:10:26.930Z,6.87
2019-02-28T15:12:58.656Z,7.23
2019-02-28T15:15:30.733Z,7.53
2019-02-28T15:18:00.697Z,6.70
2019-02-28T15:20:32.929Z,6.73
2019-02-28T15:23:02.612Z,6.80
2019-02-28T15:25:32.651Z,6.43
2019-02-28T15:28:02.671Z,7.77
2019-02-28T15:30:33.779Z,7.47
2019-02-28T15:33:05.036Z,7.23
2019-02-28T15:35:35.077Z,6.60
2019-02-28T15:38:05.630Z,6.27
2019-02-28T15:40:40.442Z,7.53
2019-02-28T15:43:16.961Z,7.20
2019-02-28T15:45:45.900Z,7.47
2019-02-28T15:48:16.968Z,7.40
2019-02-28T15:50:51.153Z,7.37
2019-02-28T15:53:18.877Z,7.87
2019-02-28T15:55:49.324Z,7.23
2019-02-28T15:58:20.119Z,7.87
2019-02-28T16:00:53.736Z,8.20
2019-02-28T16:03:23.576Z,8.27
2019-02-28T16:05:53.740Z,8.40
2019-02-28T16:08:23.768Z,8.50
2019-02-28T16:10:53.901Z,9.23
2019-02-28T16:13:25.841Z,7.30
2019-02-28T16:15:56.153Z,7.83
2019-02-28T16:18:26.496Z,7.87
2019-02-28T16:20:56.577Z,8.33
2019-02-28T16:23:40.193Z,7.37
2019-02-28T16:26:18.222Z,8.07
2019-02-28T16:28:48.475Z,8.00
2019-02-28T16:31:19.301Z,6.50
2019-02-28T16:33:51.967Z,8.80
2019-02-28T16:36:27.012Z,6.83
2019-02-28T16:39:01.092Z,8.37
2019-02-28T16:41:36.923Z,7.43
2019-02-28T16:44:07.777Z,6.67
2019-02-28T16:46:38.643Z,6.90
2019-02-28T16:49:10.610Z,7.80
2019-02-28T16:51:42.256Z,7.70
2019-02-28T16:54:19.350Z,7.17
2019-02-28T16:56:49.210Z,8.00
2019-02-28T16:59:19.164Z,7.90
2019-02-28T17:01:51.419Z,7.70
2019-02-28T17:04:25.730Z,5.90
2019-02-28T17:06:57.178Z,6.70
2019-02-28T17:09:35.327Z,8.50
2019-02-28T17:12:37.508Z,7.20
2019-02-28T17:15:13.635Z,6.57
2019-02-28T17:17:50.160Z,7.27
2019-02-28T17:20:20.516Z,7.93
2019-02-28T17:22:51.485Z,8.03
2019-02-28T17:25:22.589Z,7.00
2019-02-28T17:28:07.120Z,7.30
2019-02-28T17:30:46.603Z,7.73
2019-02-28T17:33:17.011Z,6.57
2019-02-28T17:35:49.126Z,7.37
2019-02-28T17:38:19.184Z,7.50
2019-02-28T17:40:49.653Z,7.40
2019-02-28T17:43:24.058Z,8.27
2019-02-28T17:45:52.245Z,7.43
2019-02-28T17:48:56.975Z,6.57
2019-02-28T17:51:44.039Z,8.40
2019-02-28T17:55:00.858Z,5.83
2019-02-28T17:57:55.109Z,7.03
2019-02-28T18:00:54.492Z,7.33
2019-02-28T18:04:11.064Z,7.63
2019-02-28T18:07:26.696Z,7.40
2019-02-28T18:10:26.391Z,8.93
2019-02-28T18:13:25.904Z,8.00
2019-02-28T18:16:38.383Z,7.27
2019-02-28T18:19:43.795Z,7.60
2019-02-28T18:23:07.425Z,8.00
2019-02-28T18:26:38.530Z,6.27
2019-02-28T18:29:32.259Z,8.30
2019-02-28T18:32:02.295Z,6.67
2019-02-28T18:34:34.528Z,6.37
2019-02-28T18:37:04.772Z,7.90
2019-02-28T18:39:34.802Z,6.77
2019-02-28T18:42:05.004Z,5.83
2019-02-28T18:44:37.490Z,6.80
2019-02-28T18:47:07.616Z,6.67
2019-02-28T18:49:37.665Z,7.30
2019-02-28T18:52:07.691Z,7.00
2019-02-28T18:54:39.305Z,7.03
2019-02-28T18:57:09.448Z,7.20
2019-02-28T18:59:39.585Z,7.70
2019-02-28T19:02:09.812Z,7.17
2019-02-28T19:04:40.052Z,7.80
2019-02-28T19:07:10.075Z,7.70
2019-02-28T19:09:40.416Z,7.73
2019-02-28T19:12:10.444Z,7.30
2019-02-28T19:14:40.702Z,7.73
2019-02-28T19:17:10.656Z,7.03
2019-02-28T19:19:40.813Z,7.60
2019-02-28T19:22:11.139Z,7.27
2019-02-28T19:24:41.205Z,6.93
2019-02-28T19:27:11.324Z,5.80
2019-02-28T19:29:41.432Z,5.83
2019-02-28T19:32:11.455Z,4.90
2019-02-28T19:34:45.890Z,5.53
2019-02-28T19:37:15.992Z,4.67
2019-02-28T19:39:46.425Z,5.10
2019-02-28T19:42:16.540Z,5.30
2019-02-28T19:44:46.698Z,6.27
2019-02-28T19:47:17.167Z,5.80
2019-02-28T19:49:47.404Z,6.27
2019-02-28T19:52:17.454Z,6.93
2019-02-28T19:54:47.448Z,6.10
2019-02-28T19:57:17.573Z,6.03
2019-02-28T19:59:47.802Z,5.20
2019-02-28T20:02:18.010Z,5.47
2019-02-28T20:04:48.520Z,6.60
2019-02-28T20:07:18.653Z,6.13
2019-02-28T20:09:48.804Z,6.27
2019-02-28T20:12:18.933Z,6.63
2019-02-28T20:14:49.063Z,6.83
2019-02-28T20:17:19.024Z,6.90
2019-02-28T20:19:49.192Z,7.53
2019-02-28T20:22:19.231Z,6.53
2019-02-28T20:24:49.287Z,6.87
2019-02-28T20:27:19.236Z,6.20
2019-02-28T20:29:55.041Z,8.90
2019-02-28T20:32:21.080Z,8.73
2019-02-28T20:34:51.309Z,7.93
2019-02-28T20:37:21.215Z,8.37
2019-02-28T20:39:51.384Z,8.70
2019-02-28T20:42:21.471Z,7.40
2019-02-28T20:44:51.716Z,7.73
2019-02-28T20:47:21.592Z,7.00
2019-02-28T20:49:51.758Z,6.93
2019-02-28T20:52:21.842Z,6.67
2019-02-28T20:54:51.896Z,7.23
2019-02-28T20:57:21.836Z,5.77
2019-02-28T20:59:52.020Z,5.80
2019-02-28T21:02:21.992Z,5.90
2019-02-28T21:04:52.020Z,5.30
2019-02-28T21:07:22.312Z,4.57
2019-02-28T21:09:52.500Z,6.30
2019-02-28T21:12:22.708Z,5.67
2019-02-28T21:14:53.172Z,5.67
2019-02-28T21:17:29.402Z,6.00
2019-02-28T21:19:55.369Z,6.00
2019-02-28T21:22:26.042Z,4.73
2019-02-28T21:24:56.105Z,5.07
2019-02-28T21:27:26.596Z,5.80
2019-02-28T21:29:56.790Z,5.60
2019-02-28T21:32:27.256Z,5.13
2019-02-28T21:34:57.537Z,5.53
2019-02-28T21:37:27.812Z,5.20
2019-02-28T21:39:58.298Z,4.93
2019-02-28T21:42:28.529Z,4.83
2019-02-28T21:44:58.733Z,4.77
2019-02-28T21:47:28.992Z,3.67
2019-02-28T21:49:59.208Z,3.93
2019-02-28T21:52:29.394Z,4.57
2019-02-28T21:54:59.482Z,4.27
2019-02-28T21:57:29.941Z,3.30
2019-02-28T22:00:00.467Z,4.27
2019-02-28T22:02:30.797Z,3.20
2019-02-28T22:05:01.042Z,3.40
2019-02-28T22:07:31.180Z,3.10
2019-02-28T22:10:01.241Z,3.27
2019-02-28T22:12:31.162Z,3.53
2019-02-28T22:15:01.196Z,3.53
2019-02-28T22:17:31.241Z,3.50
2019-02-28T22:20:01.234Z,3.37
2019-02-28T22:22:31.367Z,3.30
2019-02-28T22:25:01.285Z,3.73
2019-02-28T22:27:31.335Z,4.20
2019-02-28T22:30:08.152Z,4.67
2019-02-28T22:32:43.707Z,3.90
2019-02-28T22:35:22.376Z,3.57
2019-02-28T22:37:52.476Z,4.20
2019-02-28T22:40:22.717Z,3.97
2019-02-28T22:42:53.122Z,3.93
2019-02-28T22:45:23.326Z,3.80
2019-02-28T22:47:53.668Z,3.50
2019-02-28T22:50:26.772Z,3.67
2019-02-28T22:52:57.052Z,3.60
2019-02-28T22:55:27.338Z,3.47
2019-02-28T22:57:57.368Z,4.27
2019-02-28T23:00:58.924Z,4.40
2019-02-28T23:03:30.107Z,3.53
2019-02-28T23:06:00.757Z,3.43
2019-02-28T23:08:31.000Z,3.73
2019-02-28T23:11:01.252Z,3.80
2019-02-28T23:13:31.560Z,3.20
2019-02-28T23:16:01.914Z,3.83
2019-02-28T23:18:32.074Z,3.40
2019-02-28T23:21:02.340Z,3.43
2019-02-28T23:23:32.414Z,3.20
2019-02-28T23:26:13.593Z,3.60
2019-02-28T23:28:53.888Z,3.67
2019-02-28T23:32:05.045Z,3.30
2019-02-28T23:34:54.885Z,3.70
2019-02-28T23:37:36.274Z,3.30
2019-02-28T23:40:18.459Z,2.73
2019-02-28T23:43:00.060Z,2.93
2019-02-28T23:45:41.622Z,3.10
2019-02-28T23:48:24.350Z,3.20
2019-02-28T23:51:06.205Z,2.70
2019-02-28T23:53:46.395Z,3.03
2019-02-28T23:56:35.661Z,2.97
2019-02-28T23:59:17.311Z,3.00
